MST,Max TemperatureF,Mean TemperatureF,Min TemperatureF,Max Dew PointF,MeanDew PointF,Min DewpointF,Max Humidity, Mean Humidity, Min Humidity, Max Sea Level PressureIn, Mean Sea Level PressureIn, Min Sea Level PressureIn, Max VisibilityMiles, Mean VisibilityMiles, Min VisibilityMiles, Max Wind SpeedMPH, Mean Wind SpeedMPH, Max Gust SpeedMPH,PrecipitationIn, CloudCover, Events, WindDirDegrees
2013-5-1,91,80,69,28,23,20,20,13,8,29.90,29.83,29.72,10,10,10,9,3,,0.00,0,,223
2013-5-2,91,81,71,9,4,-1,7,5,4,30.12,30.00,29.92,10,10,10,20,10,26,0.00,0,,33
2013-5-3,87,78,68,27,19,5,19,12,6,30.02,29.89,29.75,10,10,10,10,5,17,0.00,0,,115
2013-5-4,91,77,63,36,22,14,37,15,6,29.73,29.68,29.60,10,10,9,10,2,17,0.00,0,,231
2013-5-5,87,78,69,31,23,18,19,13,8,29.83,29.77,29.71,10,10,10,14,5,24,0.00,0,Thunderstorm,196
2013-5-6,82,74,66,46,40,25,42,29,17,29.92,29.85,29.80,10,10,10,10,4,,0.00,2,,187
2013-5-7,80,72,64,42,39,35,37,29,22,29.94,29.88,29.81,10,10,10,12,5,22,0.00,1,,206
2013-5-8,79,71,63,41,37,31,40,28,19,30.00,29.93,29.88,10,10,10,10,2,18,0.00,0,,189
2013-5-9,82,73,64,40,36,32,38,26,16,29.95,29.90,29.83,10,10,10,7,3,,0.00,0,,232
2013-5-10,90,77,64,42,35,29,43,22,12,29.96,29.90,29.84,10,10,10,9,2,,0.00,0,,193
2013-5-11,91,80,69,42,36,28,38,20,10,30.02,29.97,29.91,10,10,10,13,4,21,0.00,0,,99
2013-5-12,96,83,70,41,36,32,33,19,10,30.08,29.97,29.85,10,10,10,8,3,,0.00,0,,144
2013-5-13,98,86,73,43,36,31,33,18,9,29.99,29.89,29.79,10,10,10,7,2,,0.00,0,,179
2013-5-14,98,88,78,39,33,26,22,14,9,29.89,29.81,29.71,10,10,10,9,5,16,0.00,0,,198
2013-5-15,97,86,75,40,35,29,28,17,10,29.88,29.81,29.73,10,10,10,17,5,23,0.00,0,,231
2013-5-16,98,86,73,39,29,16,28,15,6,29.84,29.76,29.67,10,10,9,13,4,18,0.00,0,,211
2013-5-17,90,80,70,32,28,22,20,14,11,29.82,29.77,29.74,10,10,10,8,3,16,0.00,0,,166
2013-5-18,88,80,72,47,39,32,39,24,14,29.87,29.81,29.77,10,10,10,14,3,18,0.00,0,,243
2013-5-19,91,80,70,42,37,33,34,21,14,29.86,29.77,29.68,10,10,10,14,4,25,0.00,0,,229
2013-5-20,93,80,66,39,25,18,34,14,7,29.83,29.77,29.72,10,10,10,15,4,30,0.00,0,,266
2013-5-21,95,80,66,34,26,19,30,14,7,29.84,29.76,29.68,10,10,10,10,3,,0.00,0,,203
2013-5-22,98,84,71,36,26,19,26,13,7,29.73,29.65,29.55,10,10,10,12,4,22,0.00,0,,225
2013-5-23,96,84,73,35,29,22,22,14,9,29.76,29.70,29.65,10,10,10,13,5,24,0.00,0,,217
2013-5-24,96,82,68,34,26,17,27,13,7,29.86,29.80,29.74,10,10,10,13,3,16,0.00,0,,217
2013-5-25,95,83,71,33,24,17,24,12,7,29.88,29.82,29.76,10,10,10,8,2,,0.00,0,,179
2013-5-26,91,80,70,30,23,19,21,12,7,29.90,29.84,29.78,10,10,10,8,2,,0.00,0,,130
2013-5-27,91,82,72,35,29,25,26,16,10,29.83,29.76,29.67,10,10,10,8,1,,0.00,0,,298
2013-5-28,93,80,66,40,35,30,36,20,11,29.67,29.61,29.53,10,10,10,15,4,25,0.00,0,,234
2013-5-29,93,83,73,48,41,38,33,22,15,29.68,29.62,29.56,10,10,10,12,5,20,0.00,0,,224
2013-5-30,95,84,73,53,47,41,40,26,15,29.76,29.71,29.65,10,10,10,13,4,21,0.00,0,,242
2013-5-31,97,86,75,55,48,41,48,27,16,29.82,29.75,29.68,10,10,10,8,3,,0.00,0,,250